Ederlezi — FGF8882 — position and weather

sailwx.info

Track history (hours):
 
Tides and Currents Weather Stations Pressure Air Temp Water Temp Dewpoint Dewpoint Depression Visibility Wind Speed Wind Dir Waves Ship Positions

Ederlezi

Last reported at 2017-Aug-18 11:03 UTC. Time now 2017-Sep-19 17:20 UTC.
Position N 47°43' W 003°21'.
Warning: this ship's position is 32 days out of date.

Length 11 m.

Type: Sailing vessel. MMSI: 227766190.

Date/timePositionNaut miles runAvg speedWind from/ knotsBaromVisibWave heightAir tempDewpointWater temp
2017-Aug-18 11:03N 47°43' W 003°21'0 0.0
2017-Aug-18 11:00N 47°43' W 003°21'0 0.0
2017-Aug-18 10:30N 47°43' W 003°21'0 0.0
2017-Aug-18 10:00N 47°43' W 003°21'0 0.0
2017-Aug-18 09:30N 47°43' W 003°21'0 0.0
2017-Aug-18 09:00N 47°43' W 003°21'0 0.0
2017-Aug-18 08:30N 47°43' W 003°21'0 0.0
2017-Aug-17 17:52N 47°43' W 003°21'0 0.0
2017-Aug-17 17:28N 47°43' W 003°21'0 0.0
2017-Aug-17 16:58N 47°43' W 003°21'0 0.0
2017-Aug-17 16:28N 47°43' W 003°21'0 0.0
2017-Aug-17 15:58N 47°43' W 003°21'0 0.0
2017-Aug-17 15:28N 47°43' W 003°21'0 0.0
2017-Aug-17 14:58N 47°43' W 003°21'0 0.0
2017-Aug-17 14:28N 47°43' W 003°21'0 0.0
2017-Aug-17 13:58N 47°43' W 003°21'0 0.0
2017-Aug-17 13:28N 47°43' W 003°21'0 0.0
2017-Aug-17 12:58N 47°43' W 003°21'0 0.0
2017-Aug-17 12:28N 47°43' W 003°21'0 0.0
2017-Aug-16 14:45N 47°43' W 003°21'0 0.0
2017-Aug-16 14:30N 47°43' W 003°21'0 0.0
2017-Aug-16 14:00N 47°43' W 003°21'0 0.0
2017-Aug-16 13:30N 47°43' W 003°21'0 0.0
2017-Aug-16 10:13N 47°43' W 003°21'0 0.0
2017-Aug-16 09:58N 47°43' W 003°21'0 0.0
2017-Aug-16 09:28N 47°43' W 003°21'0 0.0
2017-Aug-16 08:58N 47°43' W 003°21'1 1.3
2017-Aug-16 08:30N 47°43' W 003°22'2 3.6
2017-Aug-16 08:00N 47°42' W 003°23'2 4.3
2017-Aug-16 07:30N 47°40' W 003°25'2 2.9
2017-Aug-16 06:57N 47°39' W 003°27'0 0.0
2017-Aug-16 06:30N 47°39' W 003°27'0 0.0
2017-Aug-14 13:01N 47°39' W 003°27'0 0.0
2017-Aug-14 12:58N 47°39' W 003°27'1 1.4
2017-Aug-14 12:30N 47°39' W 003°26'2 4.8
2017-Aug-14 12:00N 47°38' W 003°23'3 5.1
2017-Aug-14 11:30N 47°36' W 003°20'2 4.4
2017-Aug-14 11:00N 47°35' W 003°17'2 3.5
2017-Aug-14 10:30N 47°33' W 003°16'2 4.4
2017-Aug-14 10:00N 47°32' W 003°14'2 3.9
2017-Aug-14 09:30N 47°30' W 003°12'2 4.8
2017-Aug-14 09:00N 47°28' W 003°09'3 5.5
2017-Aug-14 08:30N 47°27' W 003°06'4 5.5
2017-Aug-14 07:45N 47°24' W 003°02'1 2.9
2017-Aug-14 07:30N 47°24' W 003°01'2 3.7
2017-Aug-14 06:59N 47°24' W 002°58'2 3.7
2017-Aug-14 06:29N 47°23' W 002°56'0 0.0
2017-Aug-13 09:45N 47°23' W 002°57'1 2.0
2017-Aug-13 09:28N 47°24' W 002°56'2 4.0
2017-Aug-13 09:00N 47°25' W 002°58'2 3.7
2017-Aug-13 08:30N 47°27' W 002°59'2 4.0
2017-Aug-13 08:00N 47°29' W 002°59'2 4.0
2017-Aug-13 07:30N 47°31' W 002°60'2 3.6
2017-Aug-13 07:00N 47°32' W 003°00'2 4.5
2017-Aug-13 06:30N 47°35' W 003°01'1 1.4
2017-Aug-13 05:58N 47°35' W 003°02'0 0.0
2017-Aug-12 11:33N 47°35' W 003°02'0 0.0
2017-Aug-12 11:30N 47°35' W 003°02'0 0.0
2017-Aug-12 11:00N 47°35' W 003°02'0 0.0
2017-Aug-12 10:30N 47°35' W 003°02'0 0.0
2017-Aug-12 10:00N 47°35' W 003°02'0 0.0
2017-Aug-12 09:30N 47°35' W 003°02'0 0.0
2017-Aug-12 09:00N 47°35' W 003°02'0 0.0
2017-Aug-12 08:30N 47°35' W 003°02'0 0.0
2017-Aug-12 08:00N 47°35' W 003°02'0 0.0
2017-Aug-12 07:30N 47°35' W 003°02'0 0.0
2017-Aug-11 21:55N 47°35' W 003°02'0 0.0
2017-Aug-11 21:28N 47°35' W 003°02'0 0.0
2017-Aug-11 20:58N 47°35' W 003°02'0 0.0
2017-Aug-11 20:28N 47°35' W 003°02'0 0.0
2017-Aug-11 19:55N 47°35' W 003°02'0 0.0
2017-Aug-11 19:28N 47°35' W 003°02'0 0.0
2017-Aug-11 18:58N 47°35' W 003°02'0 0.0
2017-Aug-11 18:28N 47°35' W 003°02'0 0.0
2017-Aug-11 17:58N 47°35' W 003°02'0 0.0
2017-Aug-11 17:28N 47°35' W 003°02'0 0.0
2017-Aug-11 16:58N 47°35' W 003°02'0 0.0
2017-Aug-11 16:28N 47°35' W 003°02'0 0.0
2017-Aug-11 15:58N 47°35' W 003°02'0 0.0
2017-Aug-11 15:28N 47°35' W 003°02'0 0.0
2017-Aug-11 14:58N 47°35' W 003°02'0 0.0
2017-Aug-11 13:58N 47°35' W 003°02'0 0.0
2017-Aug-11 13:28N 47°35' W 003°02'0 0.0
2017-Aug-11 12:58N 47°35' W 003°02'0 0.0
2017-Aug-11 12:28N 47°35' W 003°02'0 0.0
2017-Aug-11 11:58N 47°35' W 003°02'0 0.0
2017-Aug-11 11:28N 47°35' W 003°02'0 0.0
2017-Aug-11 10:58N 47°35' W 003°02'1 2.1
2017-Aug-11 10:30N 47°34' W 003°01'2 3.0
2017-Aug-11 10:00N 47°33' W 003°01'3 6.1
2017-Aug-11 09:30N 47°30' W 003°01'2 4.8
2017-Aug-11 09:01N 47°28' W 003°02'2 2.9
2017-Aug-11 08:29N 47°26' W 003°03'2 3.5
2017-Aug-11 08:00N 47°26' W 003°05'2 4.9
2017-Aug-11 07:30N 47°24' W 003°09'2 4.1
2017-Aug-11 07:00N 47°23' W 003°11'2 3.0
2017-Aug-11 06:30N 47°22' W 003°13'  
Track history (hours):
 
Tides and Currents Weather Stations Pressure Air Temp Water Temp Dewpoint Dewpoint Depression Visibility Wind Speed Wind Dir Waves Ship Positions

Ederlezi

Last reported at 2017-Aug-18 11:03 UTC. Time now 2017-Sep-19 17:20 UTC.
Position N 47°43' W 003°21'.
Warning: this ship's position is 32 days out of date.

Length 11 m.

Type: Sailing vessel. MMSI: 227766190.

Date/timePositionNaut miles runAvg speedWind from/ knotsBaromVisibWave heightAir tempDewpointWater temp
2017-Aug-18 11:03N 47°43' W 003°21'0 0.0
2017-Aug-18 11:00N 47°43' W 003°21'0 0.0
2017-Aug-18 10:30N 47°43' W 003°21'0 0.0
2017-Aug-18 10:00N 47°43' W 003°21'0 0.0
2017-Aug-18 09:30N 47°43' W 003°21'0 0.0
2017-Aug-18 09:00N 47°43' W 003°21'0 0.0
2017-Aug-18 08:30N 47°43' W 003°21'0 0.0
2017-Aug-17 17:52N 47°43' W 003°21'0 0.0
2017-Aug-17 17:28N 47°43' W 003°21'0 0.0
2017-Aug-17 16:58N 47°43' W 003°21'0 0.0
2017-Aug-17 16:28N 47°43' W 003°21'0 0.0
2017-Aug-17 15:58N 47°43' W 003°21'0 0.0
2017-Aug-17 15:28N 47°43' W 003°21'0 0.0
2017-Aug-17 14:58N 47°43' W 003°21'0 0.0
2017-Aug-17 14:28N 47°43' W 003°21'0 0.0
2017-Aug-17 13:58N 47°43' W 003°21'0 0.0
2017-Aug-17 13:28N 47°43' W 003°21'0 0.0
2017-Aug-17 12:58N 47°43' W 003°21'0 0.0
2017-Aug-17 12:28N 47°43' W 003°21'0 0.0
2017-Aug-16 14:45N 47°43' W 003°21'0 0.0
2017-Aug-16 14:30N 47°43' W 003°21'0 0.0
2017-Aug-16 14:00N 47°43' W 003°21'0 0.0
2017-Aug-16 13:30N 47°43' W 003°21'0 0.0
2017-Aug-16 10:13N 47°43' W 003°21'0 0.0
2017-Aug-16 09:58N 47°43' W 003°21'0 0.0
2017-Aug-16 09:28N 47°43' W 003°21'0 0.0
2017-Aug-16 08:58N 47°43' W 003°21'1 1.3
2017-Aug-16 08:30N 47°43' W 003°22'2 3.6
2017-Aug-16 08:00N 47°42' W 003°23'2 4.3
2017-Aug-16 07:30N 47°40' W 003°25'2 2.9
2017-Aug-16 06:57N 47°39' W 003°27'0 0.0
2017-Aug-16 06:30N 47°39' W 003°27'0 0.0
2017-Aug-14 13:01N 47°39' W 003°27'0 0.0
2017-Aug-14 12:58N 47°39' W 003°27'1 1.4
2017-Aug-14 12:30N 47°39' W 003°26'2 4.8
2017-Aug-14 12:00N 47°38' W 003°23'3 5.1
2017-Aug-14 11:30N 47°36' W 003°20'2 4.4
2017-Aug-14 11:00N 47°35' W 003°17'2 3.5
2017-Aug-14 10:30N 47°33' W 003°16'2 4.4
2017-Aug-14 10:00N 47°32' W 003°14'2 3.9
2017-Aug-14 09:30N 47°30' W 003°12'2 4.8
2017-Aug-14 09:00N 47°28' W 003°09'3 5.5
2017-Aug-14 08:30N 47°27' W 003°06'4 5.5
2017-Aug-14 07:45N 47°24' W 003°02'1 2.9
2017-Aug-14 07:30N 47°24' W 003°01'2 3.7
2017-Aug-14 06:59N 47°24' W 002°58'2 3.7
2017-Aug-14 06:29N 47°23' W 002°56'0 0.0
2017-Aug-13 09:45N 47°23' W 002°57'1 2.0
2017-Aug-13 09:28N 47°24' W 002°56'2 4.0
2017-Aug-13 09:00N 47°25' W 002°58'2 3.7
2017-Aug-13 08:30N 47°27' W 002°59'2 4.0
2017-Aug-13 08:00N 47°29' W 002°59'2 4.0
2017-Aug-13 07:30N 47°31' W 002°60'2 3.6
2017-Aug-13 07:00N 47°32' W 003°00'2 4.5
2017-Aug-13 06:30N 47°35' W 003°01'1 1.4
2017-Aug-13 05:58N 47°35' W 003°02'0 0.0
2017-Aug-12 11:33N 47°35' W 003°02'0 0.0
2017-Aug-12 11:30N 47°35' W 003°02'0 0.0
2017-Aug-12 11:00N 47°35' W 003°02'0 0.0
2017-Aug-12 10:30N 47°35' W 003°02'0 0.0
2017-Aug-12 10:00N 47°35' W 003°02'0 0.0
2017-Aug-12 09:30N 47°35' W 003°02'0 0.0
2017-Aug-12 09:00N 47°35' W 003°02'0 0.0
2017-Aug-12 08:30N 47°35' W 003°02'0 0.0
2017-Aug-12 08:00N 47°35' W 003°02'0 0.0
2017-Aug-12 07:30N 47°35' W 003°02'0 0.0
2017-Aug-11 21:55N 47°35' W 003°02'0 0.0
2017-Aug-11 21:28N 47°35' W 003°02'0 0.0
2017-Aug-11 20:58N 47°35' W 003°02'0 0.0
2017-Aug-11 20:28N 47°35' W 003°02'0 0.0
2017-Aug-11 19:55N 47°35' W 003°02'0 0.0
2017-Aug-11 19:28N 47°35' W 003°02'0 0.0
2017-Aug-11 18:58N 47°35' W 003°02'0 0.0
2017-Aug-11 18:28N 47°35' W 003°02'0 0.0
2017-Aug-11 17:58N 47°35' W 003°02'0 0.0
2017-Aug-11 17:28N 47°35' W 003°02'0 0.0
2017-Aug-11 16:58N 47°35' W 003°02'0 0.0
2017-Aug-11 16:28N 47°35' W 003°02'0 0.0
2017-Aug-11 15:58N 47°35' W 003°02'0 0.0
2017-Aug-11 15:28N 47°35' W 003°02'0 0.0
2017-Aug-11 14:58N 47°35' W 003°02'0 0.0
2017-Aug-11 13:58N 47°35' W 003°02'0 0.0
2017-Aug-11 13:28N 47°35' W 003°02'0 0.0
2017-Aug-11 12:58N 47°35' W 003°02'0 0.0
2017-Aug-11 12:28N 47°35' W 003°02'0 0.0
2017-Aug-11 11:58N 47°35' W 003°02'0 0.0
2017-Aug-11 11:28N 47°35' W 003°02'0 0.0
2017-Aug-11 10:58N 47°35' W 003°02'1 2.1
2017-Aug-11 10:30N 47°34' W 003°01'2 3.0
2017-Aug-11 10:00N 47°33' W 003°01'3 6.1
2017-Aug-11 09:30N 47°30' W 003°01'2 4.8
2017-Aug-11 09:01N 47°28' W 003°02'2 2.9
2017-Aug-11 08:29N 47°26' W 003°03'2 3.5
2017-Aug-11 08:00N 47°26' W 003°05'2 4.9
2017-Aug-11 07:30N 47°24' W 003°09'2 4.1
2017-Aug-11 07:00N 47°23' W 003°11'2 3.0
2017-Aug-11 06:30N 47°22' W 003°13'  

Dump ship's entire track history